createdAt,value
2018-05-21T00:01:24.556Z,5.10
2018-05-21T00:03:55.555Z,5.10
2018-05-21T00:06:24.693Z,4.17
2018-05-21T00:08:53.774Z,4.93
2018-05-21T00:11:23.001Z,4.67
2018-05-21T00:13:51.817Z,5.07
2018-05-21T00:16:22.386Z,4.57
2018-05-21T00:18:51.029Z,4.90
2018-05-21T00:21:24.549Z,4.63
2018-05-21T00:23:53.176Z,5.10
2018-05-21T00:26:21.807Z,4.70
2018-05-21T00:28:50.434Z,5.10
2018-05-21T00:31:19.044Z,4.60
2018-05-21T00:33:47.677Z,4.13
2018-05-21T00:36:16.278Z,4.90
2018-05-21T00:38:44.939Z,4.17
2018-05-21T00:41:13.542Z,4.10
2018-05-21T00:43:42.175Z,4.73
2018-05-21T00:46:10.793Z,4.57
2018-05-21T00:48:41.886Z,5.10
2018-05-21T00:51:13.952Z,4.70
2018-05-21T00:53:43.213Z,4.60
2018-05-21T00:56:12.171Z,4.43
2018-05-21T00:58:40.799Z,4.90
2018-05-21T01:01:11.559Z,4.67
2018-05-21T01:03:40.202Z,5.40
2018-05-21T01:06:08.869Z,5.30
2018-05-21T01:08:37.631Z,4.73
2018-05-21T01:11:06.790Z,4.40
2018-05-21T01:13:35.878Z,4.47
2018-05-21T01:16:04.841Z,4.33
2018-05-21T01:18:33.914Z,4.77
2018-05-21T01:21:02.450Z,5.23
2018-05-21T01:23:31.081Z,4.80
2018-05-21T01:26:02.386Z,4.50
2018-05-21T01:28:32.773Z,4.40
2018-05-21T01:31:02.551Z,4.80
2018-05-21T01:33:31.177Z,4.93
2018-05-21T01:36:00.605Z,5.20
2018-05-21T01:38:29.219Z,4.77
2018-05-21T01:40:57.850Z,4.50
2018-05-21T01:43:26.438Z,4.77
2018-05-21T01:45:57.909Z,4.60
2018-05-21T01:48:26.518Z,4.10
2018-05-21T01:50:55.158Z,4.50
2018-05-21T01:53:33.184Z,5.10
2018-05-21T01:56:04.534Z,4.40
2018-05-21T01:58:33.428Z,4.27
2018-05-21T02:01:04.505Z,4.23
2018-05-21T02:03:33.106Z,3.60
2018-05-21T02:06:01.750Z,3.97
2018-05-21T02:08:30.417Z,4.33
2018-05-21T02:10:58.999Z,3.90
2018-05-21T02:13:27.595Z,4.50
2018-05-21T02:15:56.219Z,4.60
2018-05-21T02:18:24.814Z,4.07
2018-05-21T02:20:53.446Z,4.23
2018-05-21T02:23:22.063Z,4.73
2018-05-21T02:25:50.701Z,4.30
2018-05-21T02:28:19.302Z,4.23
2018-05-21T02:30:47.965Z,4.17
2018-05-21T02:33:16.569Z,4.70
2018-05-21T02:35:47.634Z,3.70
2018-05-21T02:38:18.393Z,4.00
2018-05-21T02:40:47.537Z,4.43
2018-05-21T02:43:16.229Z,4.63
2018-05-21T02:45:44.867Z,4.47
2018-05-21T02:48:13.497Z,4.23
2018-05-21T02:50:42.484Z,4.73
2018-05-21T02:53:11.226Z,4.33
2018-05-21T02:55:40.119Z,4.50
2018-05-21T02:58:10.373Z,4.87
2018-05-21T03:00:40.108Z,4.30
2018-05-21T03:03:12.872Z,4.13
2018-05-21T03:05:41.562Z,4.97
2018-05-21T03:08:10.651Z,4.03
2018-05-21T03:10:39.359Z,3.87
2018-05-21T03:13:07.999Z,4.40
2018-05-21T03:15:37.066Z,4.10
2018-05-21T03:18:15.486Z,4.03
2018-05-21T03:20:44.136Z,5.20
2018-05-21T03:23:12.945Z,4.90
2018-05-21T03:25:41.593Z,4.90
2018-05-21T03:28:10.703Z,5.15
2018-05-21T03:30:39.851Z,4.27
2018-05-21T03:33:08.791Z,4.20
2018-05-21T03:35:37.695Z,4.10
2018-05-21T03:38:06.363Z,4.20
2018-05-21T03:40:35.201Z,4.43
2018-05-21T03:43:04.815Z,4.50
2018-05-21T03:45:33.853Z,5.10
2018-05-21T03:48:02.548Z,5.37
2018-05-21T03:50:32.058Z,4.87
2018-05-21T03:53:01.045Z,4.20
2018-05-21T03:55:29.705Z,4.93
2018-05-21T03:58:00.821Z,4.23
2018-05-21T04:01:06.467Z,4.73
2018-05-21T04:03:56.509Z,4.10
2018-05-21T04:06:25.311Z,4.57
2018-05-21T04:08:53.912Z,4.60
2018-05-21T04:11:22.920Z,4.43
2018-05-21T04:13:51.666Z,4.20
2018-05-21T04:16:20.794Z,4.90
2018-05-21T04:18:49.801Z,4.13
2018-05-21T04:21:18.538Z,4.00
2018-05-21T04:23:47.527Z,4.43
2018-05-21T04:26:17.012Z,4.47
2018-05-21T04:28:45.798Z,3.90
2018-05-21T04:31:14.382Z,4.20
2018-05-21T04:33:43.032Z,4.73
2018-05-21T04:36:11.765Z,4.50
2018-05-21T04:38:44.268Z,4.17
2018-05-21T04:41:13.841Z,5.03
2018-05-21T04:43:42.500Z,4.27
2018-05-21T04:46:11.673Z,4.40
2018-05-21T04:48:40.430Z,4.93
2018-05-21T04:51:15.474Z,4.07
2018-05-21T04:56:36.091Z,4.60
2018-05-21T04:59:07.676Z,4.77
2018-05-21T05:01:36.330Z,4.83
2018-05-21T05:04:07.618Z,4.77
2018-05-21T05:06:36.256Z,4.63
2018-05-21T05:09:06.590Z,5.15
2018-05-21T05:11:42.840Z,4.60
2018-05-21T05:14:11.486Z,4.50
2018-05-21T05:16:47.720Z,4.87
2018-05-21T05:19:16.389Z,4.63
2018-05-21T05:21:45.467Z,5.37
2018-05-21T05:24:14.097Z,4.80
2018-05-21T05:26:43.144Z,4.83
2018-05-21T05:29:13.272Z,4.03
2018-05-21T05:31:42.388Z,4.53
2018-05-21T05:37:02.892Z,5.00
2018-05-21T05:39:34.493Z,4.40
2018-05-21T05:44:51.779Z,4.53
2018-05-21T05:47:31.576Z,5.10
2018-05-21T05:50:00.239Z,4.53
2018-05-21T05:52:29.100Z,4.40
2018-05-21T05:54:58.403Z,5.37
2018-05-21T05:57:27.157Z,4.30
2018-05-21T05:59:55.770Z,4.47
2018-05-21T06:02:24.427Z,5.07
2018-05-21T06:04:55.651Z,4.20
2018-05-21T06:07:24.256Z,3.90
2018-05-21T06:09:52.942Z,4.10
2018-05-21T06:12:21.577Z,4.30
2018-05-21T06:14:50.227Z,4.80
2018-05-21T06:17:18.845Z,4.23
2018-05-21T06:19:47.545Z,4.30
2018-05-21T06:22:16.177Z,3.80
2018-05-21T06:24:44.848Z,4.80
2018-05-21T06:27:13.477Z,4.03
2018-05-21T06:29:42.136Z,4.53
2018-05-21T06:32:12.735Z,4.12
2018-05-21T06:34:41.425Z,4.12
2018-05-21T06:37:10.114Z,4.03
2018-05-21T06:39:38.779Z,3.85
2018-05-21T06:42:07.417Z,4.12
2018-05-21T06:44:36.088Z,4.45
2018-05-21T06:47:04.706Z,4.30
2018-05-21T06:49:33.408Z,4.35
2018-05-21T06:52:02.025Z,3.62
2018-05-21T06:54:30.629Z,4.18
2018-05-21T06:56:59.277Z,3.90
2018-05-21T06:59:28.011Z,4.22
2018-05-21T07:01:58.989Z,4.03
2018-05-21T07:04:27.637Z,3.58
2018-05-21T07:06:56.289Z,3.90
2018-05-21T07:09:24.902Z,3.62
2018-05-21T07:11:53.584Z,3.40
2018-05-21T07:14:22.244Z,3.47
2018-05-21T07:16:50.915Z,3.92
2018-05-21T07:19:19.526Z,3.53
2018-05-21T07:21:48.150Z,3.28
2018-05-21T07:24:16.775Z,3.70
2018-05-21T07:26:45.462Z,3.30
2018-05-21T07:29:14.082Z,3.90
2018-05-21T07:31:43.697Z,3.95
2018-05-21T07:34:12.324Z,3.70
2018-05-21T07:36:40.987Z,3.67
2018-05-21T07:39:09.610Z,3.12
2018-05-21T07:41:38.255Z,3.28
2018-05-21T07:44:09.456Z,3.37
2018-05-21T07:46:38.100Z,3.55
2018-05-21T07:49:09.135Z,3.40
2018-05-21T07:51:39.723Z,3.33
2018-05-21T07:54:09.141Z,3.25
2018-05-21T07:56:48.790Z,3.53
2018-05-21T07:59:17.377Z,3.47
2018-05-21T08:01:49.868Z,3.10
2018-05-21T08:04:18.485Z,3.28
2018-05-21T08:06:56.118Z,3.45
2018-05-21T08:09:29.135Z,3.60
2018-05-21T08:11:58.809Z,2.87
2018-05-21T08:14:27.641Z,2.58
2018-05-21T08:16:58.403Z,3.00
2018-05-21T08:19:27.000Z,3.00
2018-05-21T08:21:55.656Z,2.95
2018-05-21T08:24:24.271Z,2.90
2018-05-21T08:26:52.895Z,2.70
2018-05-21T08:29:22.896Z,3.22
2018-05-21T08:31:51.541Z,2.50
2018-05-21T08:34:22.548Z,2.78
2018-05-21T08:36:53.633Z,2.80
2018-05-21T08:39:24.541Z,2.35
2018-05-21T08:41:53.190Z,2.60
2018-05-21T08:44:21.776Z,2.10
2018-05-21T08:46:53.046Z,2.15
2018-05-21T08:49:21.655Z,2.60
2018-05-21T08:51:51.442Z,2.17
2018-05-21T08:54:21.998Z,2.15
2018-05-21T08:56:50.640Z,2.08
2018-05-21T08:59:19.244Z,2.62
2018-05-21T09:01:49.981Z,2.25
2018-05-21T09:04:18.604Z,2.40
2018-05-21T09:06:49.465Z,2.40
2018-05-21T09:09:18.088Z,2.42
2018-05-21T09:11:46.677Z,2.10
2018-05-21T09:14:15.302Z,1.90
2018-05-21T09:16:45.135Z,2.75
2018-05-21T09:19:15.603Z,2.10
2018-05-21T09:21:44.214Z,2.15
2018-05-21T09:24:13.168Z,2.30
2018-05-21T09:26:41.779Z,2.33
2018-05-21T09:29:10.430Z,2.42
2018-05-21T09:31:39.051Z,1.83
2018-05-21T09:34:07.720Z,2.10
2018-05-21T09:36:37.294Z,1.75
2018-05-21T09:39:05.930Z,2.15
2018-05-21T09:41:34.530Z,2.50
2018-05-21T09:44:05.839Z,2.40
2018-05-21T09:46:35.407Z,2.47
2018-05-21T09:49:04.068Z,2.30
2018-05-21T09:51:32.787Z,2.17
2018-05-21T09:54:01.451Z,2.30
2018-05-21T09:56:30.071Z,1.85
2018-05-21T09:58:58.745Z,2.22
2018-05-21T10:01:27.749Z,2.28
2018-05-21T10:03:59.473Z,2.25
2018-05-21T10:06:28.091Z,2.33
2018-05-21T10:08:56.776Z,2.37
2018-05-21T10:11:27.360Z,2.00
2018-05-21T10:13:56.140Z,2.40
2018-05-21T10:16:24.734Z,2.25
2018-05-21T10:18:53.357Z,2.20
2018-05-21T10:21:21.989Z,2.15
2018-05-21T10:23:50.660Z,2.08
2018-05-21T10:26:21.322Z,2.60
2018-05-21T10:28:49.959Z,2.30
2018-05-21T10:31:20.977Z,2.20
2018-05-21T10:33:50.710Z,2.15
2018-05-21T10:36:19.370Z,2.20
2018-05-21T10:38:49.019Z,2.00
2018-05-21T10:41:17.631Z,2.15
2018-05-21T10:43:46.281Z,2.55
2018-05-21T10:46:14.858Z,2.50
2018-05-21T10:48:43.465Z,2.47
2018-05-21T10:51:12.172Z,2.75
2018-05-21T10:53:40.801Z,2.37
2018-05-21T10:56:12.088Z,2.45
2018-05-21T10:58:40.742Z,2.10
2018-05-21T11:01:09.373Z,2.30
2018-05-21T11:03:37.987Z,2.40
2018-05-21T11:06:09.707Z,2.42
2018-05-21T11:08:38.302Z,2.10
2018-05-21T11:11:08.910Z,2.33
2018-05-21T11:13:41.323Z,2.22
2018-05-21T11:16:10.360Z,2.17
2018-05-21T11:18:38.962Z,2.05
2018-05-21T11:21:07.581Z,2.12
2018-05-21T11:23:38.309Z,2.10
2018-05-21T11:26:09.304Z,2.08
2018-05-21T11:28:37.894Z,2.08
2018-05-21T11:31:06.533Z,2.37
2018-05-21T11:33:35.126Z,2.03
2018-05-21T11:36:03.745Z,2.17
2018-05-21T11:38:32.350Z,2.08
2018-05-21T11:41:00.977Z,1.90
2018-05-21T11:43:29.565Z,2.05
2018-05-21T11:45:58.210Z,1.92
2018-05-21T11:48:26.804Z,1.73
2018-05-21T11:50:55.451Z,1.90
2018-05-21T11:53:24.055Z,2.10
2018-05-21T11:55:54.752Z,2.08
2018-05-21T11:58:23.343Z,1.92
2018-05-21T12:00:52.924Z,1.87
2018-05-21T12:03:21.519Z,1.90
2018-05-21T12:05:50.146Z,1.90
2018-05-21T12:08:18.738Z,1.90
2018-05-21T12:10:47.362Z,2.20
2018-05-21T12:13:15.953Z,2.33
2018-05-21T12:15:44.615Z,2.28
2018-05-21T12:18:13.249Z,2.00
2018-05-21T12:20:41.902Z,2.12
2018-05-21T12:23:10.636Z,2.50
2018-05-21T12:25:40.323Z,2.05
2018-05-21T12:28:08.925Z,2.00
2018-05-21T12:30:38.125Z,2.12
2018-05-21T12:33:06.685Z,2.00
2018-05-21T12:35:35.299Z,2.42
2018-05-21T12:38:03.929Z,1.95
2018-05-21T12:40:32.529Z,2.00
2018-05-21T12:43:01.182Z,2.40
2018-05-21T12:45:30.839Z,2.20
2018-05-21T12:48:01.447Z,2.00
2018-05-21T12:50:30.603Z,2.47
2018-05-21T12:52:59.238Z,2.15
2018-05-21T12:55:30.160Z,2.50
2018-05-21T12:57:58.797Z,2.30
2018-05-21T13:00:27.402Z,2.30
2018-05-21T13:02:56.043Z,2.35
2018-05-21T13:05:24.647Z,1.87
2018-05-21T13:07:53.270Z,2.08
2018-05-21T13:10:21.860Z,2.20
2018-05-21T13:12:50.954Z,2.17
2018-05-21T13:15:20.111Z,2.25
2018-05-21T13:17:49.666Z,2.47
2018-05-21T13:20:18.303Z,2.25
2018-05-21T13:22:46.934Z,2.10
2018-05-21T13:25:22.683Z,2.10
2018-05-21T13:27:51.344Z,2.20
2018-05-21T13:30:21.666Z,2.00
2018-05-21T13:32:50.627Z,2.22
2018-05-21T13:35:23.541Z,1.85
2018-05-21T13:37:52.659Z,1.98
2018-05-21T13:40:23.685Z,2.00
2018-05-21T13:45:40.447Z,1.92
2018-05-21T13:48:09.165Z,1.98
2018-05-21T13:50:42.681Z,1.98
2018-05-21T13:53:11.712Z,2.03
2018-05-21T13:55:40.799Z,2.08
2018-05-21T13:58:09.715Z,2.55
2018-05-21T14:00:39.320Z,2.25
2018-05-21T14:03:07.949Z,1.95
2018-05-21T14:05:36.744Z,1.80
2018-05-21T14:08:05.681Z,2.40
2018-05-21T14:10:34.355Z,2.55
2018-05-21T14:13:03.033Z,2.53
2018-05-21T14:15:31.684Z,1.95
2018-05-21T14:18:00.352Z,1.70
2018-05-21T14:20:28.955Z,2.00
2018-05-21T14:22:57.590Z,2.00
2018-05-21T14:25:27.167Z,2.03
2018-05-21T14:27:57.255Z,2.20
2018-05-21T14:30:25.864Z,2.47
2018-05-21T14:32:54.559Z,2.35
2018-05-21T14:35:24.980Z,2.03
2018-05-21T14:37:54.979Z,2.15
2018-05-21T14:40:26.103Z,1.90
2018-05-21T14:42:54.857Z,2.20
2018-05-21T14:45:23.893Z,2.00
2018-05-21T14:47:54.628Z,1.83
2018-05-21T14:50:25.741Z,1.67
2018-05-21T14:52:54.642Z,1.83
2018-05-21T14:55:28.728Z,2.03
2018-05-21T14:57:57.330Z,2.12
2018-05-21T15:00:25.960Z,1.98
2018-05-21T15:02:54.593Z,2.17
2018-05-21T15:05:23.278Z,2.17
2018-05-21T15:07:51.875Z,2.10
2018-05-21T15:10:20.584Z,1.90
2018-05-21T15:12:49.208Z,2.03
2018-05-21T15:15:17.878Z,1.92
2018-05-21T15:17:46.847Z,2.03
2018-05-21T15:20:15.697Z,1.80
2018-05-21T15:22:46.122Z,1.67
2018-05-21T15:25:17.194Z,1.60
2018-05-21T15:27:46.715Z,1.73
2018-05-21T15:30:15.369Z,2.00
2018-05-21T15:32:44.912Z,2.00
2018-05-21T15:35:13.563Z,1.85
2018-05-21T15:37:42.199Z,2.17
2018-05-21T15:40:12.809Z,1.85
2018-05-21T15:42:43.823Z,1.80
2018-05-21T15:45:15.186Z,1.83
2018-05-21T15:47:44.783Z,1.90
2018-05-21T15:50:15.417Z,2.22
2018-05-21T15:52:44.383Z,1.77
2018-05-21T15:55:13.427Z,2.00
2018-05-21T15:57:44.198Z,2.17
2018-05-21T16:00:12.735Z,1.90
2018-05-21T16:02:41.380Z,1.90
2018-05-21T16:05:14.901Z,2.35
2018-05-21T16:07:45.897Z,2.03
2018-05-21T16:10:17.269Z,1.87
2018-05-21T16:12:53.787Z,2.08
2018-05-21T16:15:22.411Z,1.90
2018-05-21T16:17:51.184Z,2.00
2018-05-21T16:20:19.731Z,2.00
2018-05-21T16:22:51.420Z,2.17
2018-05-21T16:25:22.398Z,1.92
2018-05-21T16:27:53.351Z,1.75
2018-05-21T16:30:23.954Z,1.92
2018-05-21T16:32:52.572Z,2.20
2018-05-21T16:35:21.507Z,1.73
2018-05-21T16:37:50.497Z,1.80
2018-05-21T16:40:19.141Z,1.80
2018-05-21T16:42:51.431Z,2.15
2018-05-21T16:45:23.197Z,1.75
2018-05-21T16:47:56.810Z,1.60
2018-05-21T16:50:27.199Z,1.77
2018-05-21T16:52:56.922Z,1.73
2018-05-21T16:55:27.454Z,1.85
2018-05-21T16:57:56.132Z,1.90
2018-05-21T17:00:26.787Z,2.30
2018-05-21T17:02:55.405Z,1.80
2018-05-21T17:05:24.083Z,2.10
2018-05-21T17:07:54.978Z,1.87
2018-05-21T17:10:24.529Z,1.77
2018-05-21T17:12:53.398Z,2.15
2018-05-21T17:15:22.505Z,2.42
2018-05-21T17:17:54.055Z,2.00
2018-05-21T17:20:23.285Z,2.05
2018-05-21T17:22:53.040Z,1.90
2018-05-21T17:25:22.423Z,1.73
2018-05-21T17:27:51.641Z,1.80
2018-05-21T17:30:20.260Z,2.25
2018-05-21T17:32:51.516Z,1.80
2018-05-21T17:35:20.496Z,2.20
2018-05-21T17:37:54.742Z,2.08
2018-05-21T17:40:23.424Z,2.30
2018-05-21T17:42:53.280Z,2.17
2018-05-21T17:45:22.133Z,2.15
2018-05-21T17:47:51.968Z,2.15
2018-05-21T17:50:20.584Z,1.58
2018-05-21T17:52:52.629Z,1.77
2018-05-21T17:55:21.648Z,2.20
2018-05-21T17:57:51.598Z,2.05
2018-05-21T18:00:21.446Z,1.77
2018-05-21T18:02:50.392Z,2.03
2018-05-21T18:05:19.424Z,2.00
2018-05-21T18:07:51.387Z,1.95
2018-05-21T18:10:20.330Z,1.85
2018-05-21T18:12:49.394Z,2.17
2018-05-21T18:15:21.392Z,1.60
2018-05-21T18:18:04.475Z,2.20
2018-05-21T18:20:37.197Z,2.08
2018-05-21T18:23:21.692Z,2.12
2018-05-21T18:25:50.633Z,1.60
2018-05-21T18:28:23.664Z,2.00
2018-05-21T18:30:52.895Z,2.47
2018-05-21T18:33:23.453Z,2.20
2018-05-21T18:35:52.331Z,2.20
2018-05-21T18:38:21.026Z,2.08
2018-05-21T18:40:49.941Z,1.80
2018-05-21T18:43:22.658Z,1.80
2018-05-21T18:45:56.490Z,2.17
2018-05-21T18:48:27.168Z,2.10
2018-05-21T18:53:56.485Z,1.77
2018-05-21T18:56:25.272Z,1.95
2018-05-21T18:58:55.954Z,2.08
2018-05-21T19:01:24.565Z,2.00
2018-05-21T19:03:53.255Z,1.92
2018-05-21T19:06:22.430Z,2.40
2018-05-21T19:08:51.437Z,1.87
2018-05-21T19:11:20.145Z,2.08
2018-05-21T19:13:54.914Z,1.95
2018-05-21T19:16:23.752Z,1.95
2018-05-21T19:18:52.451Z,1.70
2018-05-21T19:21:21.084Z,2.45
2018-05-21T19:23:56.445Z,2.20
2018-05-21T19:26:25.798Z,2.37
2018-05-21T19:28:59.198Z,2.45
2018-05-21T19:31:28.236Z,2.20
2018-05-21T19:33:57.305Z,1.87
2018-05-21T19:36:26.426Z,2.03
2018-05-21T19:38:55.240Z,2.00
2018-05-21T19:41:23.984Z,1.98
2018-05-21T19:43:52.655Z,1.87
2018-05-21T19:46:21.302Z,2.20
2018-05-21T19:48:52.461Z,1.87
2018-05-21T19:51:21.151Z,2.37
2018-05-21T19:53:50.213Z,3.03
2018-05-21T19:56:18.827Z,2.40
2018-05-21T19:58:47.484Z,2.20
2018-05-21T20:01:16.148Z,2.58
2018-05-21T20:03:44.797Z,2.17
2018-05-21T20:06:13.539Z,2.37
2018-05-21T20:08:42.198Z,2.35
2018-05-21T20:11:15.628Z,2.28
2018-05-21T20:13:44.383Z,2.22
2018-05-21T20:16:12.995Z,2.72
2018-05-21T20:18:41.669Z,2.30
2018-05-21T20:21:10.312Z,2.40
2018-05-21T20:23:38.993Z,2.10
2018-05-21T20:26:09.047Z,2.10
2018-05-21T20:28:37.731Z,2.08
2018-05-21T20:31:06.432Z,2.55
2018-05-21T20:33:35.134Z,2.60
2018-05-21T20:36:03.897Z,2.05
2018-05-21T20:38:32.664Z,2.70
2018-05-21T20:41:01.290Z,2.33
2018-05-21T20:43:30.216Z,2.30
2018-05-21T20:46:02.869Z,2.80
2018-05-21T20:48:31.628Z,2.47
2018-05-21T20:51:02.055Z,2.55
2018-05-21T20:53:33.208Z,2.80
2018-05-21T20:56:02.199Z,2.90
2018-05-21T20:58:30.834Z,2.47
2018-05-21T21:00:59.999Z,2.50
2018-05-21T21:03:33.742Z,2.17
2018-05-21T21:06:03.716Z,2.50
2018-05-21T21:08:32.347Z,2.40
2018-05-21T21:11:01.017Z,2.43
2018-05-21T21:13:29.679Z,2.33
2018-05-21T21:16:01.816Z,2.60
2018-05-21T21:18:31.548Z,2.83
2018-05-21T21:21:02.749Z,3.10
2018-05-21T21:23:31.731Z,2.93
2018-05-21T21:26:00.473Z,3.17
2018-05-21T21:28:29.137Z,2.33
2018-05-21T21:31:00.334Z,2.60
2018-05-21T21:33:29.021Z,2.47
2018-05-21T21:35:57.731Z,3.15
2018-05-21T21:38:26.568Z,2.47
2018-05-21T21:40:59.385Z,2.57
2018-05-21T21:43:29.823Z,2.80
2018-05-21T21:45:58.482Z,2.47
2018-05-21T21:48:27.174Z,2.60
2018-05-21T21:50:56.075Z,3.00
2018-05-21T21:53:24.994Z,2.70
2018-05-21T21:55:53.672Z,2.50
2018-05-21T21:58:22.315Z,2.43
2018-05-21T22:00:53.302Z,2.70
2018-05-21T22:03:22.215Z,2.90
2018-05-21T22:05:50.993Z,2.83
2018-05-21T22:08:20.172Z,2.83
2018-05-21T22:10:54.882Z,2.70
2018-05-21T22:13:28.240Z,2.57
2018-05-21T22:16:02.605Z,2.70
2018-05-21T22:18:31.928Z,2.73
2018-05-21T22:21:00.611Z,3.10
2018-05-21T22:23:29.284Z,2.73
2018-05-21T22:25:59.101Z,2.50
2018-05-21T22:28:28.033Z,2.73
2018-05-21T22:30:56.933Z,3.13
2018-05-21T22:33:29.418Z,3.20
2018-05-21T22:36:00.851Z,3.13
2018-05-21T22:38:31.536Z,3.42
2018-05-21T22:41:01.704Z,2.80
2018-05-21T22:43:30.772Z,2.83
2018-05-21T22:45:59.708Z,3.00
2018-05-21T22:48:28.719Z,3.20
2018-05-21T22:51:08.502Z,2.83
2018-05-21T22:53:38.351Z,3.00
2018-05-21T22:56:07.256Z,2.77
2018-05-21T22:58:37.424Z,3.37
2018-05-21T23:01:06.569Z,4.13
2018-05-21T23:03:38.687Z,3.10
2018-05-21T23:06:07.471Z,3.70
2018-05-21T23:08:37.715Z,3.13
2018-05-21T23:11:08.660Z,3.40
2018-05-21T23:13:41.164Z,3.20
2018-05-21T23:16:10.259Z,3.80
2018-05-21T23:18:42.671Z,3.63
2018-05-21T23:21:11.495Z,3.37
2018-05-21T23:23:41.516Z,3.43
2018-05-21T23:26:10.370Z,3.43
2018-05-21T23:28:40.361Z,3.50
2018-05-21T23:31:09.022Z,3.50
2018-05-21T23:33:39.534Z,3.57
2018-05-21T23:36:08.158Z,4.10
2018-05-21T23:38:37.064Z,3.43
2018-05-21T23:41:06.187Z,3.33
2018-05-21T23:43:37.477Z,3.80
2018-05-21T23:46:06.227Z,3.33
2018-05-21T23:48:34.923Z,3.43
2018-05-21T23:51:03.836Z,3.13
2018-05-21T23:53:32.407Z,3.70
2018-05-21T23:56:01.075Z,3.40
2018-05-21T23:58:29.837Z,3.57
